Time;durP1;ratioP1;P1;durP2;ratioP2;P2;SDS_P1;SDS_P2;PMS_P1;PMS_P2;Temp;Humidity;BMP_temperature;BMP_pressure;BME280_temperature;BME280_humidity;BME280_pressure;Samples;Min_cycle;Max_cycle;Signal;HPM_P1;HPM_P2
2022/09/04 00:00:10;;;;;;;5.30;3.50;;;;;;;16.35;55.04;100867.41;675201;29;1303;-91
2022/09/04 00:00:42;;;;;;;5.38;3.60;;;;;;;16.23;55.32;100862.06;685879;28;1309;-91
2022/09/04 00:01:27;;;;;;;6.18;4.10;;;;;;;16.30;55.14;100874.41;680395;29;1120;-91
2022/09/04 00:02:14;;;;;;;4.43;3.58;;;;;;;16.29;55.26;100870.03;676204;29;1975;-91
2022/09/04 00:02:47;;;;;;;4.43;3.40;;;;;;;16.34;55.24;100876.19;681258;29;1430;-91
2022/09/04 00:03:31;;;;;;;4.80;3.40;;;;;;;16.28;55.06;100871.75;690794;28;1427;-91
2022/09/04 00:04:08;;;;;;;3.95;3.40;;;;;;;16.31;55.11;100874.41;683154;28;1625;-90
2022/09/04 00:04:31;;;;;;;5.30;3.40;;;;;;;16.32;55.12;100877.94;675110;29;1211;-91
2022/09/04 00:04:58;;;;;;;6.25;3.50;;;;;;;16.28;54.98;100874.41;679384;29;1550;-91
2022/09/04 00:05:44;;;;;;;5.25;3.50;;;;;;;16.34;55.11;100881.44;685680;28;1351;-91
2022/09/04 00:06:14;;;;;;;5.32;3.50;;;;;;;16.32;55.06;100872.66;680266;29;1458;-91
2022/09/04 00:06:50;;;;;;;8.70;3.40;;;;;;;16.26;55.17;100880.53;677674;29;1352;-91
2022/09/04 00:07:27;;;;;;;7.15;3.13;;;;;;;16.24;55.07;100871.72;683141;29;1393;-91
2022/09/04 00:08:04;;;;;;;4.65;3.58;;;;;;;16.24;55.08;100874.34;680357;29;1398;-90
2022/09/04 00:08:40;;;;;;;4.05;3.65;;;;;;;16.25;55.08;100874.41;675096;29;1957;-91
2022/09/04 00:09:15;;;;;;;5.85;3.80;;;;;;;16.25;55.01;100876.13;683137;29;1238;-91
2022/09/04 00:10:00;;;;;;;5.32;3.40;;;;;;;16.22;55.15;100871.69;682663;28;1367;-91
2022/09/04 00:10:34;;;;;;;3.72;3.42;;;;;;;16.16;55.01;100866.38;683043;29;1301;-91
2022/09/04 00:11:24;;;;;;;4.55;3.58;;;;;;;16.21;55.07;100866.44;688414;28;1390;-91
2022/09/04 00:11:52;;;;;;;4.35;3.33;;;;;;;16.24;54.96;100875.25;680359;29;1904;-91
2022/09/04 00:12:13;;;;;;;4.03;3.38;;;;;;;16.20;55.15;100873.44;677635;29;1230;-90
2022/09/04 00:12:48;;;;;;;3.80;3.40;;;;;;;16.23;55.08;100877.84;680552;29;1720;-91
2022/09/04 00:13:13;;;;;;;3.90;3.40;;;;;;;16.20;55.12;100870.81;681990;28;1469;-91
2022/09/04 00:13:50;;;;;;;3.60;3.30;;;;;;;16.21;55.09;100883.09;691149;28;1335;-91
2022/09/04 00:14:21;;;;;;;3.75;3.33;;;;;;;16.17;55.20;100871.66;688177;28;1183;-91
2022/09/04 00:14:55;;;;;;;4.35;3.40;;;;;;;16.22;55.18;100884.84;683039;28;1867;-91
2022/09/04 00:15:25;;;;;;;3.70;3.30;;;;;;;16.12;55.25;100865.47;683108;29;1330;-91
2022/09/04 00:15:58;;;;;;;3.50;3.20;;;;;;;16.12;55.27;100873.38;682977;29;2034;-91
2022/09/04 00:16:26;;;;;;;4.10;3.30;;;;;;;16.11;55.51;100868.13;682961;29;1354;-91
2022/09/04 00:17:01;;;;;;;4.50;3.60;;;;;;;16.16;55.19;100876.91;684288;28;1371;-91
2022/09/04 00:17:33;;;;;;;4.20;3.80;;;;;;;16.23;55.32;100888.38;678291;29;1233;-91
2022/09/04 00:18:50;;;;;;;3.70;3.35;;;;;;;16.22;55.40;100886.63;679810;29;1671;-91
2022/09/04 00:19:20;;;;;;;3.80;3.50;;;;;;;16.18;55.26;100883.94;675850;29;1218;-91
2022/09/04 00:20:04;;;;;;;3.60;3.30;;;;;;;16.12;55.61;100878.63;680075;29;1146;-91
2022/09/04 00:20:35;;;;;;;4.70;3.22;;;;;;;16.16;55.43;100884.81;680545;29;1269;-91
2022/09/04 00:21:20;;;;;;;4.95;3.30;;;;;;;16.10;55.42;100880.38;674004;29;2192;-91
2022/09/04 00:21:55;;;;;;;3.80;3.40;;;;;;;16.10;55.45;100883.03;677245;29;1501;-91
2022/09/04 00:22:24;;;;;;;3.80;3.40;;;;;;;16.13;55.53;100885.69;675008;29;1195;-91
2022/09/04 00:23:17;;;;;;;3.63;3.22;;;;;;;16.15;55.61;100891.84;672490;29;1430;-91
2022/09/04 00:24:07;;;;;;;6.80;3.80;;;;;;;16.07;55.52;100880.38;680373;29;1330;-91
2022/09/04 00:24:43;;;;;;;3.92;3.50;;;;;;;16.13;55.28;100893.59;682224;29;1274;-91
2022/09/04 00:25:25;;;;;;;5.30;3.50;;;;;;;16.12;55.66;100891.81;680312;28;1414;-91
2022/09/04 00:26:09;;;;;;;4.50;3.50;;;;;;;16.12;55.62;100891.81;682361;29;1797;-91
2022/09/04 00:26:53;;;;;;;3.92;3.55;;;;;;;16.06;55.53;100881.25;685879;28;1255;-91
2022/09/04 00:27:42;;;;;;;3.90;3.50;;;;;;;16.10;55.52;100888.28;685732;28;1853;-91
2022/09/04 00:28:31;;;;;;;3.80;3.40;;;;;;;16.09;55.71;100889.16;675259;29;1630;-91
2022/09/04 00:29:03;;;;;;;4.47;3.40;;;;;;;16.01;55.73;100881.22;685781;28;1222;-91
2022/09/04 00:29:42;;;;;;;5.15;3.63;;;;;;;16.10;55.78;100895.31;688368;28;1342;-91
2022/09/04 00:30:07;;;;;;;3.83;3.40;;;;;;;16.06;55.73;100891.78;685657;28;1305;-91
2022/09/04 00:30:28;;;;;;;3.70;3.30;;;;;;;16.03;55.94;100887.38;688305;28;1416;-90
2022/09/04 00:30:57;;;;;;;3.78;3.30;;;;;;;16.07;55.88;100884.75;680482;28;1756;-91
2022/09/04 00:31:21;;;;;;;3.55;3.20;;;;;;;16.11;55.83;100894.44;683301;29;1206;-91
2022/09/04 00:32:00;;;;;;;4.00;3.30;;;;;;;16.01;55.69;100880.34;688484;28;1275;-91
2022/09/04 00:32:28;;;;;;;5.05;3.47;;;;;;;16.03;55.88;100886.47;676266;29;1310;-91
2022/09/04 00:33:18;;;;;;;4.88;3.70;;;;;;;16.03;55.76;100883.84;675842;29;1272;-91
2022/09/04 00:34:01;;;;;;;3.95;3.55;;;;;;;15.98;55.93;100882.94;682514;29;1312;-91
2022/09/04 00:34:42;;;;;;;4.18;3.38;;;;;;;16.09;55.68;100897.06;680447;29;1286;-91
2022/09/04 00:35:24;;;;;;;3.60;3.30;;;;;;;16.03;55.93;100886.47;684744;28;1215;-91
2022/09/04 00:36:01;;;;;;;4.03;3.63;;;;;;;16.01;55.95;100883.88;685640;28;1220;-91
2022/09/04 00:36:26;;;;;;;4.10;3.70;;;;;;;16.04;55.88;100888.25;675066;29;1305;-91
2022/09/04 00:36:53;;;;;;;3.92;3.63;;;;;;;15.96;56.09;100874.13;673739;29;1486;-91
2022/09/04 00:37:21;;;;;;;4.28;3.40;;;;;;;16.00;55.85;100884.69;680368;29;1399;-91
2022/09/04 00:38:34;;;;;;;4.60;3.30;;;;;;;16.04;55.81;100888.25;685776;28;1343;-91
2022/09/04 00:39:01;;;;;;;4.13;3.67;;;;;;;16.10;55.83;100892.69;662140;29;2039;-90
2022/09/04 00:39:30;;;;;;;5.38;4.10;;;;;;;16.06;55.95;100886.53;679722;29;1263;-91
2022/09/04 00:40:28;;;;;;;5.10;4.05;;;;;;;16.14;55.94;100892.72;683977;28;1243;-91
2022/09/04 00:40:58;;;;;;;4.00;3.60;;;;;;;16.13;55.80;100893.59;677550;29;1614;-91
2022/09/04 00:41:46;;;;;;;4.43;3.47;;;;;;;16.13;55.79;100898.84;688467;28;1278;-91
2022/09/04 00:42:32;;;;;;;5.25;3.30;;;;;;;16.13;55.79;100900.59;685317;28;1394;-90
2022/09/04 00:43:28;;;;;;;3.80;3.40;;;;;;;16.09;55.84;100890.94;678717;29;1700;-91
2022/09/04 00:44:07;;;;;;;6.10;3.28;;;;;;;16.09;55.84;100901.47;679987;29;2090;-91
2022/09/04 00:44:46;;;;;;;3.90;3.50;;;;;;;15.97;55.58;100882.06;682051;29;1297;-91
2022/09/04 00:45:33;;;;;;;4.95;3.60;;;;;;;16.04;55.81;100899.66;689592;28;1440;-91
2022/09/04 00:46:31;;;;;;;5.75;3.60;;;;;;;16.07;55.94;100904.06;689781;28;1776;-90
2022/09/04 00:47:32;;;;;;;4.95;3.40;;;;;;;16.00;55.75;100897.00;687621;28;1781;-89
2022/09/04 00:48:20;;;;;;;3.90;3.60;;;;;;;16.02;55.80;100905.78;680753;29;2025;-91
2022/09/04 00:49:02;;;;;;;3.60;3.30;;;;;;;16.02;55.80;100903.16;685310;28;1973;-90
2022/09/04 00:49:41;;;;;;;4.60;3.60;;;;;;;15.97;56.01;100897.84;683052;28;1217;-91
2022/09/04 00:50:19;;;;;;;5.25;3.50;;;;;;;15.99;55.92;100904.00;686389;28;1603;-90
2022/09/04 00:51:19;;;;;;;4.75;3.40;;;;;;;16.00;55.95;100907.53;681304;29;1442;-90
2022/09/04 00:51:57;;;;;;;4.60;3.55;;;;;;;15.96;56.07;100909.25;680576;28;1254;-91
2022/09/04 00:52:46;;;;;;;3.92;3.60;;;;;;;15.89;56.11;100894.28;677754;29;1276;-91
2022/09/04 00:53:52;;;;;;;4.20;3.38;;;;;;;15.93;56.19;100900.44;678040;29;1605;-90
2022/09/04 00:55:09;;;;;;;4.00;3.60;;;;;;;15.93;56.11;100910.97;687712;28;1722;-91
2022/09/04 00:55:53;;;;;;;3.78;3.38;;;;;;;15.92;56.12;100906.59;688430;28;1318;-91
2022/09/04 00:56:58;;;;;;;5.53;3.80;;;;;;;15.90;56.32;100907.47;677682;29;1398;-91
2022/09/04 00:57:35;;;;;;;3.70;3.40;;;;;;;15.83;56.43;100899.50;680327;29;1336;-91
2022/09/04 00:58:03;;;;;;;3.80;3.40;;;;;;;15.85;56.29;100901.28;688502;28;1602;-91
2022/09/04 00:59:05;;;;;;;4.00;3.45;;;;;;;15.81;56.40;100899.50;690818;28;1265;-91
2022/09/04 00:59:45;;;;;;;5.25;3.65;;;;;;;15.75;56.47;100891.53;680200;29;1206;-91
2022/09/04 01:00:17;;;;;;;6.40;3.50;;;;;;;15.85;56.56;100914.44;675844;29;1387;-91
2022/09/04 01:00:38;;;;;;;5.80;3.70;;;;;;;15.81;56.60;100906.50;682921;28;1185;-91
2022/09/04 01:00:59;;;;;;;4.55;3.70;;;;;;;15.70;56.79;100896.78;684155;28;2226;-91
2022/09/04 01:01:27;;;;;;;4.13;3.65;;;;;;;15.74;56.92;100916.09;680256;29;1307;-90
2022/09/04 01:01:50;;;;;;;3.60;3.30;;;;;;;15.69;56.95;100896.75;683023;29;1326;-91
2022/09/04 01:02:18;;;;;;;4.00;3.20;;;;;;;15.66;57.07;100900.22;680778;28;1261;-90
2022/09/04 01:02:54;;;;;;;4.28;3.67;;;;;;;15.69;57.07;100902.91;680321;29;1304;-91
2022/09/04 01:03:42;;;;;;;6.47;4.25;;;;;;;15.75;57.17;100917.84;691126;28;1447;-91
2022/09/04 01:04:40;;;;;;;7.22;3.85;;;;;;;15.70;57.09;100909.94;680045;28;2069;-91
2022/09/04 01:05:24;;;;;;;4.72;3.60;;;;;;;15.74;57.13;100914.34;677534;29;1390;-91
2022/09/04 01:06:12;;;;;;;5.40;3.40;;;;;;;15.73;57.17;100914.34;685611;28;1766;-91
2022/09/04 01:06:58;;;;;;;3.78;3.45;;;;;;;15.73;56.96;100912.56;682831;28;1333;-90
2022/09/04 01:07:39;;;;;;;3.90;3.50;;;;;;;15.73;56.91;100907.31;685296;28;1058;-91
2022/09/04 01:08:45;;;;;;;3.67;3.38;;;;;;;15.75;56.92;100907.34;683483;29;1229;-91
2022/09/04 01:09:23;;;;;;;5.18;3.38;;;;;;;15.72;56.87;100907.28;680869;29;1274;-91
2022/09/04 01:10:19;;;;;;;5.90;3.42;;;;;;;15.77;56.93;100913.47;683227;28;1246;-91
2022/09/04 01:11:09;;;;;;;4.30;3.90;;;;;;;15.73;57.13;100915.19;677934;29;1345;-90
2022/09/04 01:11:39;;;;;;;4.25;3.72;;;;;;;15.75;57.11;100908.19;678554;29;1582;-91
2022/09/04 01:12:30;;;;;;;4.82;3.65;;;;;;;15.78;56.95;100914.38;683512;28;1906;-91
2022/09/04 01:13:12;;;;;;;3.90;3.50;;;;;;;15.76;56.97;100916.97;689708;28;1559;-90
2022/09/04 01:13:49;;;;;;;3.67;3.38;;;;;;;15.75;57.09;100913.47;680878;29;1235;-91
2022/09/04 01:14:18;;;;;;;3.65;3.35;;;;;;;15.75;57.20;100917.84;680753;28;1198;-91
2022/09/04 01:14:58;;;;;;;3.90;3.60;;;;;;;15.72;57.18;100923.97;680775;29;1261;-91
2022/09/04 01:15:25;;;;;;;3.63;3.33;;;;;;;15.73;57.18;100924.88;685771;28;1235;-89
2022/09/04 01:15:59;;;;;;;3.50;3.20;;;;;;;15.63;57.31;100913.38;680560;29;1186;-90
2022/09/04 01:16:36;;;;;;;3.65;3.35;;;;;;;15.70;57.17;100919.56;680539;29;1229;-91
2022/09/04 01:17:27;;;;;;;3.92;3.63;;;;;;;15.68;57.20;100918.66;680902;29;1996;-91
2022/09/04 01:18:02;;;;;;;4.30;3.80;;;;;;;15.63;57.34;100914.22;682495;29;1901;-90
2022/09/04 01:18:31;;;;;;;3.85;3.40;;;;;;;15.58;57.33;100910.69;680502;28;1231;-90
2022/09/04 01:19:01;;;;;;;3.45;3.15;;;;;;;15.59;57.44;100912.44;683870;28;1936;-91
2022/09/04 01:19:48;;;;;;;4.00;3.40;;;;;;;15.59;57.36;100922.97;685402;28;1722;-90
2022/09/04 01:20:31;;;;;;;4.28;3.60;;;;;;;15.62;57.49;100924.75;677670;29;1340;-90
2022/09/04 01:21:35;;;;;;;4.90;3.60;;;;;;;15.54;57.68;100911.50;683370;28;1254;-90
2022/09/04 01:22:15;;;;;;;4.40;3.88;;;;;;;15.50;58.00;100915.00;674028;29;1613;-90
2022/09/04 01:23:02;;;;;;;3.85;3.55;;;;;;;15.55;57.91;100920.31;669977;29;1381;-90
2022/09/04 01:23:48;;;;;;;4.03;3.50;;;;;;;15.46;58.04;100914.09;683158;28;1335;-91
2022/09/04 01:24:57;;;;;;;5.47;3.78;;;;;;;15.54;58.12;100913.28;684021;28;1429;-90
2022/09/04 01:25:55;;;;;;;4.30;3.90;;;;;;;15.57;58.08;100914.19;683054;28;1294;-90
2022/09/04 01:26:44;;;;;;;4.30;3.78;;;;;;;15.57;57.98;100919.47;683024;28;1251;-90
2022/09/04 01:27:14;;;;;;;4.90;3.75;;;;;;;15.57;57.91;100918.56;688804;28;1626;-90
2022/09/04 01:28:03;;;;;;;4.20;3.70;;;;;;;15.56;57.90;100920.28;680224;29;1278;-90
2022/09/04 01:28:27;;;;;;;4.20;3.80;;;;;;;15.49;57.87;100915.88;683199;29;1374;-91
2022/09/04 01:29:14;;;;;;;4.10;3.80;;;;;;;15.46;57.89;100913.19;687546;28;1583;-91
2022/09/04 01:29:53;;;;;;;4.18;3.80;;;;;;;15.41;58.04;100904.38;683169;28;1273;-90
2022/09/04 01:30:16;;;;;;;4.20;3.80;;;;;;;15.47;58.05;100918.47;685344;28;1229;-91
2022/09/04 01:30:56;;;;;;;3.90;3.60;;;;;;;15.40;57.95;100910.50;685554;28;1240;-90
2022/09/04 01:31:42;;;;;;;3.92;3.53;;;;;;;15.34;58.07;100899.06;684649;28;1607;-91
2022/09/04 01:32:28;;;;;;;5.60;4.00;;;;;;;15.41;57.98;100920.13;688459;28;1972;-91
2022/09/04 01:33:11;;;;;;;4.20;3.80;;;;;;;15.38;58.11;100906.97;680356;29;1605;-90
2022/09/04 01:34:05;;;;;;;4.40;3.90;;;;;;;15.40;58.32;100915.75;682907;29;1123;-91
2022/09/04 01:34:49;;;;;;;4.10;3.80;;;;;;;15.38;58.56;100921.03;682562;29;1338;-90
2022/09/04 01:35:20;;;;;;;4.78;3.85;;;;;;;15.39;58.49;100925.41;679052;29;1670;-91
2022/09/04 01:35:54;;;;;;;4.50;4.00;;;;;;;15.32;58.72;100913.91;680404;29;1328;-90
2022/09/04 01:36:43;;;;;;;4.30;3.90;;;;;;;15.35;58.60;100919.22;687877;28;1375;-91
2022/09/04 01:37:04;;;;;;;4.03;3.63;;;;;;;15.34;58.57;100921.84;685125;28;1219;-90
2022/09/04 01:37:42;;;;;;;5.60;3.75;;;;;;;15.31;58.86;100917.41;683035;28;1217;-91
2022/09/04 01:38:16;;;;;;;4.80;3.90;;;;;;;15.25;58.95;100906.88;688302;28;1325;-91
2022/09/04 01:38:50;;;;;;;4.20;3.80;;;;;;;15.32;58.88;100918.31;684657;28;1667;-91
2022/09/04 01:39:10;;;;;;;5.63;4.00;;;;;;;15.28;58.82;100911.25;686686;28;1505;-91
2022/09/04 01:39:34;;;;;;;5.95;3.90;;;;;;;15.29;58.89;100913.00;685449;28;1285;-91
2022/09/04 01:40:22;;;;;;;5.32;3.83;;;;;;;15.30;58.84;100913.03;683737;28;2017;-91
2022/09/04 01:40:52;;;;;;;4.40;4.00;;;;;;;15.26;58.89;100910.34;685508;28;1189;-91
2022/09/04 01:41:42;;;;;;;4.95;4.30;;;;;;;15.28;58.93;100917.41;680623;28;1576;-91
2022/09/04 01:42:19;;;;;;;4.50;4.10;;;;;;;15.22;58.81;100912.06;682898;28;2150;-91
2022/09/04 01:43:10;;;;;;;4.40;4.00;;;;;;;15.19;58.96;100902.38;682401;28;1313;-91
2022/09/04 01:43:31;;;;;;;4.55;3.90;;;;;;;15.17;59.25;100904.09;678871;29;1246;-91
2022/09/04 01:43:53;;;;;;;5.50;4.20;;;;;;;15.20;59.07;100908.53;683834;28;1742;-91
2022/09/04 01:44:14;;;;;;;5.18;4.15;;;;;;;15.14;58.93;100909.34;688248;28;1579;-91
2022/09/04 01:44:35;;;;;;;5.87;4.20;;;;;;;15.17;59.17;100903.19;682958;29;1292;-91
2022/09/04 01:44:59;;;;;;;4.97;4.00;;;;;;;15.20;59.16;100919.03;682942;28;1584;-91
2022/09/04 01:45:36;;;;;;;4.40;3.95;;;;;;;15.21;59.25;100915.56;688297;28;1421;-91
2022/09/04 01:46:13;;;;;;;5.18;3.80;;;;;;;15.19;59.20;100912.00;680950;28;1564;-90
2022/09/04 01:46:39;;;;;;;4.88;3.92;;;;;;;15.16;59.26;100917.22;680488;28;1332;-91
2022/09/04 01:47:26;;;;;;;4.60;4.20;;;;;;;15.20;59.34;100924.28;686721;28;2069;-91
2022/09/04 01:47:52;;;;;;;4.53;4.13;;;;;;;15.12;59.24;100911.03;686283;28;2044;-91
2022/09/04 01:48:20;;;;;;;4.32;3.92;;;;;;;15.12;59.09;100910.19;680150;29;1371;-91
2022/09/04 01:48:58;;;;;;;4.43;4.03;;;;;;;15.14;59.28;100916.31;680212;29;1929;-91
2022/09/04 01:49:29;;;;;;;5.10;4.60;;;;;;;15.07;59.18;100908.38;685009;28;1229;-91
2022/09/04 01:50:00;;;;;;;4.90;4.35;;;;;;;15.08;59.30;100918.00;685498;28;2036;-90
2022/09/04 01:50:25;;;;;;;4.68;4.00;;;;;;;15.13;59.35;100915.44;677730;29;1413;-91
2022/09/04 01:50:52;;;;;;;4.50;4.10;;;;;;;15.08;59.25;100910.13;680388;29;1580;-91
2022/09/04 01:51:17;;;;;;;4.60;4.20;;;;;;;15.15;59.27;100921.63;680379;29;1296;-90
2022/09/04 01:51:59;;;;;;;4.60;4.20;;;;;;;15.18;59.30;100926.03;683042;28;1120;-91
2022/09/04 01:52:37;;;;;;;4.90;4.00;;;;;;;15.15;59.51;100911.09;688542;28;1370;-91
2022/09/04 01:53:36;;;;;;;4.75;4.25;;;;;;;15.16;59.50;100911.97;683211;28;1297;-91
2022/09/04 01:54:22;;;;;;;6.40;4.18;;;;;;;15.12;59.43;100904.91;683147;29;1438;-91
2022/09/04 01:54:52;;;;;;;5.50;4.10;;;;;;;15.23;59.22;100923.47;675833;29;1370;-91
2022/09/04 01:55:46;;;;;;;4.53;4.13;;;;;;;15.22;59.27;100922.59;678282;29;1160;-90
2022/09/04 01:56:30;;;;;;;4.57;4.18;;;;;;;15.14;59.17;100913.69;686405;28;1199;-90
2022/09/04 01:59:05;;;;;;;4.20;3.80;;;;;;;15.18;59.18;100920.78;691700;28;1204;-90
2022/09/04 01:59:39;;;;;;;4.68;4.20;;;;;;;15.15;59.15;100918.09;689483;28;1256;-91
2022/09/04 02:00:07;;;;;;;5.13;4.60;;;;;;;15.18;59.41;100924.25;682480;29;1263;-91
2022/09/04 02:00:39;;;;;;;6.28;4.35;;;;;;;15.16;59.29;100922.47;678459;29;1268;-91
2022/09/04 02:01:15;;;;;;;5.72;4.00;;;;;;;15.20;59.21;100935.66;683659;29;1631;-91
2022/09/04 02:01:44;;;;;;;6.57;4.45;;;;;;;15.23;59.42;100936.63;683308;29;1430;-91
2022/09/04 02:02:17;;;;;;;5.93;4.10;;;;;;;15.23;59.26;100929.59;680842;28;2155;-91
2022/09/04 02:02:52;;;;;;;5.80;3.80;;;;;;;15.18;59.40;100926.03;683936;28;1261;-91
2022/09/04 02:03:24;;;;;;;4.95;3.90;;;;;;;15.18;59.41;100923.41;685459;28;1400;-91
2022/09/04 02:03:55;;;;;;;4.70;4.18;;;;;;;15.13;59.35;100914.56;680925;29;1324;-91
2022/09/04 02:04:27;;;;;;;4.93;3.80;;;;;;;15.16;59.32;100918.13;683227;28;1749;-92
2022/09/04 02:05:17;;;;;;;4.07;3.72;;;;;;;15.14;59.38;100916.31;677882;29;1998;-91
2022/09/04 02:06:01;;;;;;;5.55;4.10;;;;;;;15.21;59.31;100926.97;677693;29;1367;-91
2022/09/04 02:06:45;;;;;;;4.20;3.80;;;;;;;15.20;59.38;100926.91;675092;29;1294;-91
2022/09/04 02:07:27;;;;;;;4.85;3.83;;;;;;;15.14;59.23;100908.44;684097;28;1999;-91
2022/09/04 02:08:07;;;;;;;5.93;3.90;;;;;;;15.19;59.06;100918.13;685817;28;1946;-91
2022/09/04 02:08:38;;;;;;;4.35;3.95;;;;;;;15.20;59.14;100924.28;675218;29;1261;-90
2022/09/04 02:09:21;;;;;;;4.68;4.15;;;;;;;15.22;59.24;100917.31;681868;28;1651;-91
2022/09/04 02:10:20;;;;;;;5.53;4.00;;;;;;;15.20;59.43;100926.91;685199;28;1306;-91
2022/09/04 02:10:49;;;;;;;4.30;3.90;;;;;;;15.18;59.41;100926.88;685628;28;1121;-91
2022/09/04 02:11:25;;;;;;;4.65;3.70;;;;;;;15.15;59.43;100921.63;683549;28;1737;-91
2022/09/04 02:12:17;;;;;;;4.70;3.70;;;;;;;15.18;59.43;100926.03;680604;29;1126;-91
2022/09/04 02:12:58;;;;;;;4.20;3.70;;;;;;;15.19;59.46;100922.53;685349;28;1356;-90
2022/09/04 02:13:25;;;;;;;3.97;3.58;;;;;;;15.15;59.50;100920.72;685147;28;1640;-91
2022/09/04 02:14:07;;;;;;;3.97;3.58;;;;;;;15.21;59.55;100928.72;683158;28;1091;-91
2022/09/04 02:14:53;;;;;;;3.95;3.60;;;;;;;15.15;59.52;100925.97;690902;28;1375;-91
2022/09/04 02:15:30;;;;;;;6.18;3.90;;;;;;;15.19;59.61;100933.03;677858;29;1446;-91
2022/09/04 02:15:57;;;;;;;5.75;3.70;;;;;;;15.14;59.40;100929.47;683336;28;2021;-91
2022/09/04 02:16:33;;;;;;;4.10;3.70;;;;;;;15.15;59.53;100932.13;688460;28;1462;-91
2022/09/04 02:17:37;;;;;;;3.90;3.60;;;;;;;15.09;59.46;100926.78;680169;29;1510;-91
2022/09/04 02:18:13;;;;;;;6.07;4.00;;;;;;;15.14;59.63;100934.72;679825;29;1835;-91
2022/09/04 02:19:02;;;;;;;4.78;3.85;;;;;;;15.16;59.52;100943.50;677747;29;1299;-91
2022/09/04 02:19:47;;;;;;;3.60;3.30;;;;;;;15.10;59.47;100928.56;684941;28;1654;-91
2022/09/04 02:20:14;;;;;;;3.90;3.60;;;;;;;15.15;59.56;100936.50;682807;29;1274;-91
2022/09/04 02:20:35;;;;;;;4.30;3.90;;;;;;;15.09;59.96;100921.53;677640;29;1322;-91
2022/09/04 02:21:09;;;;;;;4.87;3.80;;;;;;;15.12;59.63;100937.31;680346;29;2103;-91
2022/09/04 02:21:39;;;;;;;4.25;3.60;;;;;;;15.10;59.52;100930.31;675071;29;1268;-90
2022/09/04 02:22:38;;;;;;;3.75;3.45;;;;;;;15.13;59.56;100932.97;679337;29;1636;-90
2022/09/04 02:23:10;;;;;;;4.05;3.75;;;;;;;15.11;59.64;100934.69;683101;28;1998;-91
2022/09/04 02:23:51;;;;;;;4.13;3.80;;;;;;;15.09;59.55;100932.03;677714;29;1318;-90
2022/09/04 02:24:49;;;;;;;4.72;3.60;;;;;;;15.13;59.73;100943.47;685386;28;1813;-91
2022/09/04 02:25:26;;;;;;;4.65;3.53;;;;;;;15.11;59.61;100929.44;677550;29;1230;-91
2022/09/04 02:26:00;;;;;;;4.85;3.70;;;;;;;15.16;59.45;100941.78;683008;28;1422;-91
2022/09/04 02:26:28;;;;;;;4.50;3.72;;;;;;;15.13;59.53;100932.97;680217;29;1306;-90
2022/09/04 02:26:58;;;;;;;4.30;3.90;;;;;;;15.16;59.48;100938.25;677803;29;1230;-91
2022/09/04 02:27:37;;;;;;;4.20;3.80;;;;;;;15.19;59.49;100943.56;685675;28;1757;-91
2022/09/04 02:28:13;;;;;;;3.80;3.50;;;;;;;15.08;59.45;100927.66;685487;28;1587;-91
2022/09/04 02:28:37;;;;;;;4.07;3.67;;;;;;;15.18;59.46;100941.81;680259;29;1901;-91
2022/09/04 02:29:42;;;;;;;4.30;3.90;;;;;;;15.09;59.35;100937.31;688721;28;1955;-91
2022/09/04 02:30:12;;;;;;;4.47;4.10;;;;;;;15.12;59.41;100945.22;680112;29;1862;-91
2022/09/04 02:30:48;;;;;;;4.25;3.85;;;;;;;15.08;59.38;100936.41;680377;28;1209;-91
2022/09/04 02:31:30;;;;;;;4.18;3.67;;;;;;;15.06;59.43;100943.41;686581;28;1702;-91
2022/09/04 02:32:01;;;;;;;4.88;3.47;;;;;;;15.12;59.56;100954.88;687903;28;1702;-91
2022/09/04 02:32:36;;;;;;;4.07;3.60;;;;;;;15.03;59.55;100935.50;680381;29;1429;-91
2022/09/04 02:33:34;;;;;;;4.55;3.60;;;;;;;14.99;59.51;100932.81;686359;28;1316;-90
2022/09/04 02:34:08;;;;;;;3.80;3.40;;;;;;;15.07;59.85;100945.16;679732;29;1834;-91
2022/09/04 02:34:45;;;;;;;3.92;3.42;;;;;;;15.01;59.64;100938.97;680268;29;1399;-91
2022/09/04 02:35:20;;;;;;;7.00;4.05;;;;;;;15.04;59.84;100945.13;683896;28;1537;-91
2022/09/04 02:35:56;;;;;;;7.63;4.28;;;;;;;15.05;59.75;100944.28;677703;29;1242;-91
2022/09/04 02:36:33;;;;;;;4.28;3.88;;;;;;;15.02;60.02;100941.63;682910;28;1429;-90
2022/09/04 02:37:12;;;;;;;4.05;3.72;;;;;;;15.07;59.85;100947.78;683549;28;1607;-91
2022/09/04 02:37:54;;;;;;;5.40;3.60;;;;;;;15.03;60.00;100937.22;682843;28;1373;-91
2022/09/04 02:38:46;;;;;;;5.00;3.45;;;;;;;14.94;59.83;100924.88;685756;28;1753;-91
2022/09/04 02:39:19;;;;;;;4.50;3.60;;;;;;;14.96;59.75;100930.13;680512;29;1316;-90
2022/09/04 02:40:38;;;;;;;4.00;3.60;;;;;;;14.98;60.09;100939.78;677621;29;1244;-91
2022/09/04 02:41:26;;;;;;;6.93;3.50;;;;;;;15.00;60.05;100945.94;677480;29;1736;-91
2022/09/04 02:42:18;;;;;;;4.10;3.40;;;;;;;15.02;59.78;100962.63;685367;28;1271;-91
2022/09/04 02:43:03;;;;;;;4.20;3.80;;;;;;;15.02;60.11;100951.22;682756;29;1378;-91
2022/09/04 02:43:45;;;;;;;4.00;3.60;;;;;;;15.01;59.96;100954.72;679879;29;1267;-91
2022/09/04 02:44:26;;;;;;;3.60;3.30;;;;;;;14.98;60.07;100947.69;685622;28;1910;-91
2022/09/04 02:45:25;;;;;;;4.20;3.80;;;;;;;14.98;59.86;100950.31;682726;29;1842;-90
2022/09/04 02:45:49;;;;;;;4.10;3.70;;;;;;;15.02;59.99;100951.22;677700;29;1270;-91
2022/09/04 02:46:47;;;;;;;5.22;3.90;;;;;;;15.03;60.20;100955.63;685422;28;1377;-91
2022/09/04 02:47:27;;;;;;;3.78;3.30;;;;;;;14.97;60.27;100943.28;679774;28;2117;-91
2022/09/04 02:48:14;;;;;;;3.60;3.30;;;;;;;14.95;60.11;100950.28;680305;29;1344;-91
2022/09/04 02:48:59;;;;;;;4.40;3.60;;;;;;;15.00;60.18;100950.34;682714;29;1920;-91
2022/09/04 02:50:07;;;;;;;3.67;3.38;;;;;;;14.98;60.22;100955.56;680310;29;1096;-91
2022/09/04 02:50:46;;;;;;;5.70;3.85;;;;;;;14.92;60.13;100945.88;680303;29;1202;-91
2022/09/04 02:51:44;;;;;;;4.35;3.95;;;;;;;14.95;60.33;100950.28;682677;28;1568;-91
2022/09/04 02:52:32;;;;;;;4.88;3.83;;;;;;;14.94;60.30;100959.91;684638;28;2160;-90
2022/09/04 02:53:08;;;;;;;3.80;3.50;;;;;;;14.90;60.44;100942.34;677792;29;1123;-91
2022/09/04 02:53:52;;;;;;;3.67;3.38;;;;;;;14.94;60.29;100949.38;680108;29;1415;-91
2022/09/04 02:54:43;;;;;;;4.70;3.65;;;;;;;14.97;60.51;100948.53;682744;29;1205;-91
2022/09/04 02:55:22;;;;;;;4.15;3.75;;;;;;;14.92;60.51;100944.97;682445;29;1480;-91
2022/09/04 02:56:20;;;;;;;4.30;3.90;;;;;;;14.97;60.43;100952.91;682946;29;1314;-91
2022/09/04 02:56:59;;;;;;;3.90;3.60;;;;;;;14.95;60.46;100952.91;680127;28;1232;-91
2022/09/04 02:57:38;;;;;;;4.90;3.80;;;;;;;14.89;60.44;100951.06;685546;28;1464;-91
2022/09/04 02:58:22;;;;;;;3.83;3.42;;;;;;;14.84;60.53;100944.00;683765;28;1731;-91
2022/09/04 02:58:52;;;;;;;4.20;3.80;;;;;;;14.90;60.61;100959.84;682794;28;1240;-91
2022/09/04 02:59:27;;;;;;;4.25;3.80;;;;;;;14.86;60.66;100953.66;682670;29;1270;-91
2022/09/04 03:00:03;;;;;;;5.57;4.15;;;;;;;14.85;60.71;100962.41;680823;28;1387;-90
2022/09/04 03:01:04;;;;;;;6.03;4.10;;;;;;;14.86;60.65;100968.56;687343;28;1269;-90
2022/09/04 03:01:47;;;;;;;3.90;3.60;;;;;;;14.82;60.95;100962.38;679944;29;1354;-91
2022/09/04 03:02:20;;;;;;;4.10;3.70;;;;;;;14.86;60.82;100965.94;678023;28;1423;-91
2022/09/04 03:03:04;;;;;;;4.30;3.90;;;;;;;14.80;60.65;100957.09;685847;28;1249;-91
2022/09/04 03:03:36;;;;;;;3.92;3.53;;;;;;;14.74;60.43;100946.50;680698;29;1142;-91
2022/09/04 03:04:21;;;;;;;3.90;3.60;;;;;;;14.74;60.71;100957.00;681896;28;2067;-90
2022/09/04 03:04:48;;;;;;;4.50;4.10;;;;;;;14.75;60.80;100953.50;690922;28;1263;-91
2022/09/04 03:05:41;;;;;;;5.30;4.00;;;;;;;14.79;60.70;100970.19;684305;28;2054;-91
2022/09/04 03:06:10;;;;;;;7.30;3.90;;;;;;;14.75;60.94;100953.50;681206;28;1371;-91
2022/09/04 03:06:51;;;;;;;5.88;3.97;;;;;;;14.76;60.91;100960.53;685218;28;1292;-91
2022/09/04 03:07:38;;;;;;;4.22;3.50;;;;;;;14.73;60.83;100954.34;682669;28;1424;-90
2022/09/04 03:08:02;;;;;;;5.60;3.70;;;;;;;14.81;60.97;100973.72;683444;28;1339;-91
2022/09/04 03:08:40;;;;;;;4.63;3.90;;;;;;;14.80;60.94;100975.50;682759;28;1243;-91
2022/09/04 03:09:07;;;;;;;4.53;3.75;;;;;;;14.77;60.92;100967.53;682039;28;1808;-90
2022/09/04 03:09:34;;;;;;;3.90;3.60;;;;;;;14.75;60.88;100966.66;680102;29;1260;-91
2022/09/04 03:10:06;;;;;;;4.40;3.70;;;;;;;14.75;61.05;100974.53;685771;28;2012;-91